Port Ontario, New York
Current Conditions -  °F | °C
As of 6:54 AM on Tuesday 27 Jan 2015 (Local Time) from KFZY Reporting Station
Clear Clear  
Wind Chill: -8°   Ceiling: Unl
Heat Index:   Visibility: 10mi
Dew Point:   Wind: 12mph
Humidity: 73%   Direction: 350°N
Pressure: 29.92"   Gusts: NA
Location:  43.5166°N, 76.1253°W
Report Text: KFZY 271154Z AUTO 35010KT 10SM CLR M14/M18 A2992 RMK AO2 SLP143 70001 T11391178 11094 21139 53003
Loading
Personal Weather Stations






























Interactive Weather Map New forecast layout! Learn more

10-Day Weather Forecast

Advertisements
Track Severe Weather on mobile